• Join FlightAware (Why Join?)
  • Login
  • US Flag 
08:20PM EDT


 

Airport Tracker/Info


-or-


 

Live Flight TrackerFlight Track Log ✈ N373LD ✈ 16-Nov-2013 ✈ KCOD - KMLS

Flight Track Log - Related Links

Times and Time Zones

All times are in EST time to prevent confusion due to time zone crossing. See the N373LD flight status page for this flight to view local times or setup timezone preferences in your user account.

Time Position Orientation Groundspeed Altitude Reporting Facility
EST Latitude Longitude Course Direction KTS MPH feet Rate Location/Type
02:10PM 44.5717 -108.9222 48° Northeast 176 203 9,100  Level Salt Lake Center
02:11PM 44.6044 -108.8708 48° Northeast 176 203 10,500 1,380 Climbing Salt Lake Center
02:12PM 44.6472 -108.8033 48° Northeast 184 212 12,000 1,320 Climbing Salt Lake Center
02:13PM 44.6836 -108.7472 48° Northeast 190 219 13,300 1,260 Climbing Salt Lake Center
02:14PM 44.7203 -108.6911 47° Northeast 193 222 14,600 1,200 Climbing Salt Lake Center
02:15PM 44.7276 -108.6994 48° Northeast  Level Estimated
02:15PM 44.7575 -108.6331 48° Northeast 196 226 15,900  Level Salt Lake Center
02:16PM 44.7969 -108.5717 48° Northeast 204 235 17,100 1,440 Climbing Salt Lake Center
02:17PM 44.8375 -108.5086 48° Northeast 213 245 18,900 1,320 Climbing Salt Lake Center
02:18PM 44.8792 -108.4422 48° Northeast 222 255 19,900 960 Climbing Salt Lake Center
02:19PM 44.9306 -108.3597 49° Northeast 231 266 20,900 480 Climbing Salt Lake Center
02:20PM 44.9811 -108.2806 48° Northeast 260 299 21,000  Climbing Salt Lake Center
02:21PM 45.0331 -108.1986 48° Northeast 275 316 21,000  Level Salt Lake Center
02:22PM 45.0850 -108.1169 48° Northeast 277 319 21,000  Level Salt Lake Center
02:23PM 45.1364 -108.0328 49° Northeast 281 323 21,000  Level Salt Lake Center
02:24PM 45.1872 -107.9506 49° Northeast 277 319 21,000  Level Salt Lake Center
02:25PM 45.2386 -107.8683 48° Northeast 279 321 21,000  Level Salt Lake Center
02:26PM 45.2900 -107.7853 49° Northeast 279 321 21,000  Level Salt Lake Center
02:27PM 45.3514 -107.6850 49° Northeast 281 323 21,000  Level Salt Lake Center
02:28PM 45.4039 -107.5994 49° Northeast 287 330 21,000  Level Salt Lake Center
02:29PM 45.4569 -107.5142 48° Northeast 288 331 21,000  Level Salt Lake Center
02:30PM 45.5097 -107.4275 49° Northeast 290 334 21,000  Level Salt Lake Center
02:31PM 45.5611 -107.3417 49° Northeast 287 330 21,000  Level Salt Lake Center
02:32PM 45.6142 -107.2556 49° Northeast 289 333 21,000  Level Salt Lake Center
02:33PM 45.6664 -107.1692 49° Northeast 289 333 21,000  Level Salt Lake Center
02:34PM 45.7186 -107.0806 50° Northeast 291 335 21,000  Level Salt Lake Center
02:35PM 45.7811 -106.9761 49° Northeast 290 334 21,000  Level Salt Lake Center
02:36PM 45.8317 -106.8911 49° Northeast 286 329 21,000  Level Salt Lake Center
02:37PM 45.8825 -106.8075 49° Northeast 282 325 21,000  Level Salt Lake Center
02:38PM 45.9333 -106.7228 49° Northeast 281 323 21,000  Level Salt Lake Center
02:39PM 45.9844 -106.6372 49° Northeast 282 325 21,000 -540 Level Salt Lake Center
02:40PM 46.0356 -106.5508 50° Northeast 284 327 19,900 -1,620 Descending Salt Lake Center
02:41PM 46.0831 -106.4678 50° Northeast 274 315 17,800 -2,100 Descending Salt Lake Center
02:42PM 46.1400 -106.3728 49° Northeast 265 305 15,600 -2,040 Descending Salt Lake Center
02:43PM 46.1847 -106.2953 50° Northeast 256 295 13,700 -1,860 Descending Salt Lake Center
02:44PM 46.2283 -106.2211 50° Northeast 250 288 11,900 -1,800 Descending Salt Lake Center
02:46PM 46.2706 -106.1481 50° Northeast 244 281 10,100 -1,800 Descending Salt Lake Center